Time;durP1;ratioP1;P1;durP2;ratioP2;P2;SDS_P1;SDS_P2;PMS_P1;PMS_P2;Temp;Humidity;BMP_temperature;BMP_pressure;BME280_temperature;BME280_humidity;BME280_pressure;Samples;Min_cycle;Max_cycle;Signal;HPM_P1;HPM_P2
2023/04/07 00:01:26;;;;;;;2.72;1.90;;;;;;;19.32;47.08;96913.03;10323166;28;20042;-74
2023/04/07 00:06:45;;;;;;;4.20;1.60;;;;;;;19.31;47.11;96916.09;10323153;28;20079;-74
2023/04/07 00:12:04;;;;;;;1.73;1.50;;;;;;;19.29;47.12;96912.91;10336526;28;20499;-74
2023/04/07 00:17:24;;;;;;;2.08;1.60;;;;;;;19.28;47.27;96911.31;10350826;28;20042;-74
2023/04/07 00:22:44;;;;;;;1.90;1.55;;;;;;;19.28;47.08;96906.69;10336074;28;20045;-74
2023/04/07 00:28:04;;;;;;;2.83;1.77;;;;;;;19.26;47.15;96908.91;10321629;28;20524;-74
2023/04/07 00:33:24;;;;;;;2.10;1.60;;;;;;;19.24;47.16;96905.75;10335772;28;20050;-74
2023/04/07 00:38:44;;;;;;;3.70;1.70;;;;;;;19.23;47.15;96903.34;10335517;28;20042;-74
2023/04/07 00:44:04;;;;;;;1.70;1.30;;;;;;;19.22;46.99;96891.78;10335072;28;20050;-74
2023/04/07 00:49:24;;;;;;;1.85;1.38;;;;;;;19.21;47.19;96889.38;10335057;28;20042;-74
2023/04/07 00:54:45;;;;;;;2.00;1.58;;;;;;;19.19;47.01;96889.72;10349501;28;20053;-74
2023/04/07 01:00:05;;;;;;;1.73;1.63;;;;;;;19.18;47.02;96885.41;10320772;28;20042;-74
2023/04/07 01:05:52;;;;;;;1.67;1.40;;;;;;;19.17;47.07;96878.44;10321163;28;20042;-75
2023/04/07 01:11:19;;;;;;;1.73;1.50;;;;;;;19.16;47.01;96880.34;10334001;28;20522;-75
2023/04/07 01:16:48;;;;;;;1.90;1.50;;;;;;;19.15;46.94;96873.34;10348654;28;20046;-75
2023/04/07 01:22:12;;;;;;;2.10;1.55;;;;;;;19.14;46.92;96877.16;10320170;28;20039;-75
2023/04/07 01:28:02;;;;;;;2.53;1.60;;;;;;;19.12;46.97;96871.28;10328643;28;20058;-75
2023/04/07 01:33:23;;;;;;;1.58;1.35;;;;;;;19.11;46.75;96861.63;10301136;28;20124;-75
2023/04/07 01:38:44;;;;;;;2.05;1.60;;;;;;;19.10;46.85;96862.72;10318853;28;20046;-75
2023/04/07 01:44:05;;;;;;;1.95;1.50;;;;;;;19.08;46.72;96856.84;10319247;28;20049;-75
2023/04/07 01:49:26;;;;;;;1.33;1.23;;;;;;;19.07;46.44;96846.34;10332937;28;20093;-75
2023/04/07 01:54:45;;;;;;;1.40;1.20;;;;;;;19.07;46.67;96855.25;10332789;28;20046;-75
2023/04/07 02:00:05;;;;;;;1.70;1.38;;;;;;;19.05;46.73;96846.69;10318790;28;20038;-75
2023/04/07 02:05:35;;;;;;;1.75;1.35;;;;;;;19.04;46.59;96839.69;10321333;28;20047;-75
2023/04/07 02:10:55;;;;;;;2.05;1.35;;;;;;;19.04;46.42;96836.22;10332199;28;20054;-75
2023/04/07 02:16:17;;;;;;;1.80;1.70;;;;;;;19.02;46.56;96844.63;10318728;28;20039;-75
2023/04/07 02:21:38;;;;;;;1.92;1.70;;;;;;;19.01;46.57;96832.22;10331902;28;20046;-75
2023/04/07 02:27:00;;;;;;;1.50;1.40;;;;;;;19.01;46.33;96831.44;10314860;28;20054;-75
2023/04/07 02:32:20;;;;;;;1.83;1.50;;;;;;;18.99;46.34;96834.44;10318462;28;20414;-75
2023/04/07 02:37:39;;;;;;;1.60;1.38;;;;;;;18.99;46.25;96833.66;10331583;28;20050;-74
2023/04/07 02:42:59;;;;;;;1.45;1.30;;;;;;;18.97;46.45;96831.28;10318828;28;20510;-74
2023/04/07 02:48:18;;;;;;;2.05;1.52;;;;;;;18.96;46.25;96830.47;10305559;28;20049;-75
2023/04/07 02:53:37;;;;;;;1.60;1.50;;;;;;;18.95;46.05;96825.41;10325879;28;20047;-74
2023/04/07 02:58:58;;;;;;;1.77;1.67;;;;;;;18.94;45.87;96821.13;10339132;28;20042;-74
2023/04/07 03:04:18;;;;;;;1.65;1.40;;;;;;;18.93;46.12;96822.22;10312283;28;20042;-74
2023/04/07 03:09:38;;;;;;;1.70;1.60;;;;;;;18.92;46.09;96809.84;10353332;28;20043;-75
2023/04/07 03:14:58;;;;;;;1.67;1.50;;;;;;;18.90;46.04;96806.69;10324881;28;20046;-74
2023/04/07 03:20:18;;;;;;;1.40;1.30;;;;;;;18.89;45.84;96799.69;10324805;28;20450;-74
2023/04/07 03:25:38;;;;;;;1.42;1.30;;;;;;;18.88;45.89;96798.91;10324665;28;20054;-75
2023/04/07 03:30:58;;;;;;;2.38;1.50;;;;;;;18.87;45.71;96804.59;10324542;28;20054;-75
2023/04/07 03:36:18;;;;;;;2.90;1.70;;;;;;;18.86;45.77;96794.94;10310800;28;20046;-75
2023/04/07 03:41:39;;;;;;;1.85;1.60;;;;;;;18.83;45.83;96793.66;10337609;28;20046;-75
2023/04/07 03:46:59;;;;;;;1.67;1.58;;;;;;;18.83;45.77;96803.66;10359506;28;20407;-75
2023/04/07 03:52:20;;;;;;;3.08;1.50;;;;;;;18.81;45.73;96803.97;10342913;28;20077;-75
2023/04/07 03:57:42;;;;;;;2.03;1.40;;;;;;;18.81;45.74;96805.91;10339566;28;20419;-75
2023/04/07 04:03:02;;;;;;;2.35;1.42;;;;;;;18.79;45.61;96803.47;10347090;28;20093;-75
2023/04/07 04:08:22;;;;;;;2.10;1.60;;;;;;;18.77;45.59;96801.09;10352730;28;20092;-75
2023/04/07 04:13:42;;;;;;;1.67;1.58;;;;;;;18.77;45.65;96795.69;10352247;28;20100;-75
2023/04/07 04:19:02;;;;;;;1.52;1.42;;;;;;;18.75;45.45;96797.91;10304494;28;20053;-75
2023/04/07 04:24:24;;;;;;;1.52;1.40;;;;;;;18.75;45.38;96797.91;10322621;28;20050;-75
2023/04/07 04:29:45;;;;;;;1.90;1.67;;;;;;;18.75;45.64;96795.22;10324965;28;20422;-75
2023/04/07 04:35:08;;;;;;;1.50;1.40;;;;;;;18.75;45.45;96806.00;10350267;28;20046;-74
2023/04/07 04:40:35;;;;;;;2.30;1.70;;;;;;;18.77;46.06;96811.88;10335302;28;20483;-74
2023/04/07 04:45:57;;;;;;;2.53;1.70;;;;;;;18.78;45.99;96805.38;10323216;28;20042;-74
2023/04/07 04:51:19;;;;;;;1.75;1.65;;;;;;;18.82;45.81;96807.47;10331847;28;20046;-74
2023/04/07 04:56:44;;;;;;;4.03;3.63;;;;;;;18.77;42.87;96801.09;10375847;28;20433;-74
2023/04/07 05:02:04;;;;;;;2.15;1.90;;;;;;;18.78;45.40;96802.69;10375114;28;20042;-74
2023/04/07 05:07:24;;;;;;;2.45;1.95;;;;;;;18.83;45.49;96800.97;10388452;28;20434;-74
2023/04/07 05:12:45;;;;;;;3.72;1.95;;;;;;;18.88;45.59;96808.91;10360917;28;20061;-75
2023/04/07 05:18:05;;;;;;;2.05;1.85;;;;;;;18.92;45.63;96801.75;10360642;28;20502;-75
2023/04/07 05:23:25;;;;;;;1.95;1.83;;;;;;;18.94;45.66;96794.13;10360299;28;20037;-75
2023/04/07 05:28:45;;;;;;;2.22;2.03;;;;;;;18.97;45.95;96796.19;10362390;28;20494;-75
2023/04/07 05:34:10;;;;;;;2.03;1.88;;;;;;;19.01;45.96;96793.63;10360663;28;20054;-75
2023/04/07 05:39:36;;;;;;;2.13;1.92;;;;;;;19.03;45.91;96797.59;10360864;28;20067;-74
2023/04/07 05:44:58;;;;;;;1.85;1.73;;;;;;;19.07;45.68;96795.88;10360030;28;20042;-74
2023/04/07 05:50:20;;;;;;;1.70;1.60;;;;;;;19.10;45.97;96792.50;10351660;28;20042;-75
2023/04/07 05:55:42;;;;;;;2.10;1.88;;;;;;;19.11;45.84;96790.59;10359811;28;20052;-76
2023/04/07 06:01:04;;;;;;;2.33;2.13;;;;;;;19.13;46.03;96789.19;10359900;28;20449;-75
2023/04/07 06:06:25;;;;;;;3.30;2.38;;;;;;;19.16;45.90;96796.63;10340295;28;20049;-75
2023/04/07 06:11:46;;;;;;;2.70;2.40;;;;;;;19.20;45.57;96802.19;10372963;28;20050;-76
2023/04/07 06:17:08;;;;;;;2.50;2.30;;;;;;;19.22;45.66;96788.34;10315551;28;20450;-76
2023/04/07 06:22:27;;;;;;;2.28;2.08;;;;;;;19.25;45.93;96787.69;10319322;28;20042;-76
2023/04/07 06:27:46;;;;;;;2.85;2.33;;;;;;;19.28;45.74;96785.16;10343341;28;20077;-78
2023/04/07 06:33:06;;;;;;;2.30;1.92;;;;;;;19.31;46.08;96784.50;10336916;28;20046;-74
2023/04/07 06:38:26;;;;;;;3.30;1.95;;;;;;;19.36;44.83;96788.94;10345276;28;20498;-74
2023/04/07 06:43:50;;;;;;;3.50;2.63;;;;;;;19.40;45.24;96792.59;10304411;28;20051;-74
2023/04/07 06:49:10;;;;;;;2.45;2.20;;;;;;;19.45;44.95;96792.41;10345694;28;20066;-74
2023/04/07 06:54:30;;;;;;;4.70;2.00;;;;;;;19.51;44.73;96791.13;10344897;28;20538;-74
2023/04/07 06:59:50;;;;;;;2.20;2.00;;;;;;;19.55;44.68;96792.06;10359567;28;20046;-74
2023/04/07 07:05:10;;;;;;;2.30;2.10;;;;;;;19.60;44.64;96793.00;10359295;28;20057;-74
2023/04/07 07:10:30;;;;;;;2.35;2.10;;;;;;;19.62;44.64;96782.63;10344703;28;20109;-73
2023/04/07 07:15:50;;;;;;;3.13;2.30;;;;;;;19.66;44.39;96781.69;10358993;28;20108;-73
2023/04/07 07:21:09;;;;;;;2.25;2.05;;;;;;;19.69;44.32;96791.03;10344287;28;20097;-73
2023/04/07 07:26:29;;;;;;;2.20;2.00;;;;;;;19.71;44.28;96788.81;10357051;28;20042;-74
2023/04/07 07:31:49;;;;;;;2.85;2.08;;;;;;;19.75;44.10;96795.19;10344230;28;20046;-74
2023/04/07 07:37:08;;;;;;;2.03;1.83;;;;;;;19.78;44.18;96799.94;10354149;28;20053;-73
2023/04/07 07:42:29;;;;;;;2.22;1.90;;;;;;;19.81;44.20;96793.09;10337517;28;20046;-74
2023/04/07 07:47:49;;;;;;;2.10;1.80;;;;;;;19.84;44.19;96797.84;10324658;28;20050;-73
2023/04/07 07:53:09;;;;;;;2.95;1.83;;;;;;;19.89;44.21;96801.16;10337252;28;20042;-73
2023/04/07 07:58:29;;;;;;;4.03;1.92;;;;;;;19.93;44.17;96809.41;10337165;28;20097;-73
2023/04/07 08:03:48;;;;;;;3.03;1.80;;;;;;;19.96;44.22;96806.06;10336707;28;20046;-73
2023/04/07 08:09:08;;;;;;;3.47;1.77;;;;;;;20.00;44.31;96817.00;10351319;28;20046;-73
2023/04/07 08:14:28;;;;;;;2.17;1.77;;;;;;;20.03;44.32;96819.88;10322613;28;20050;-73
2023/04/07 08:19:48;;;;;;;8.45;1.85;;;;;;;20.02;44.50;96823.69;10322565;28;20042;-73
2023/04/07 08:25:07;;;;;;;3.78;2.10;;;;;;;20.04;44.13;96817.94;10350480;28;20049;-73
2023/04/07 08:30:27;;;;;;;5.05;2.20;;;;;;;20.06;43.25;96824.59;10336624;28;20054;-73
2023/04/07 08:35:46;;;;;;;5.25;2.08;;;;;;;20.10;43.09;96817.41;10335655;28;20042;-73
2023/04/07 08:41:15;;;;;;;3.30;2.47;;;;;;;20.12;43.07;96820.59;10335481;28;20088;-73
2023/04/07 08:46:37;;;;;;;14.25;7.03;;;;;;;19.97;33.44;96817.66;10349248;28;20042;-73
2023/04/07 08:51:59;;;;;;;3.22;2.55;;;;;;;20.03;40.86;96817.16;10321219;28;20068;-73
2023/04/07 08:57:18;;;;;;;6.45;3.20;;;;;;;20.04;40.82;96815.25;10321091;28;20057;-73
2023/04/07 09:02:44;;;;;;;6.00;3.08;;;;;;;20.09;40.84;96828.56;10320901;28;20384;-73
2023/04/07 09:08:03;;;;;;;7.50;3.00;;;;;;;20.10;40.95;96822.81;10320557;28;20046;-73
2023/04/07 09:13:23;;;;;;;4.05;3.25;;;;;;;20.14;40.98;96823.75;10335309;28;20077;-73
2023/04/07 09:18:43;;;;;;;2.70;2.50;;;;;;;20.12;40.15;96817.88;10333974;28;20042;-73
2023/04/07 09:24:20;;;;;;;5.57;3.70;;;;;;;20.14;40.49;96817.56;10333691;28;20121;-73
2023/04/07 09:29:41;;;;;;;4.90;3.38;;;;;;;20.16;40.85;96807.22;10322341;28;20058;-73
2023/04/07 09:35:01;;;;;;;4.22;3.20;;;;;;;20.19;41.23;96792.22;10333449;28;20097;-73
2023/04/07 09:40:26;;;;;;;5.88;3.35;;;;;;;20.19;41.63;96806.56;10333018;28;20043;-73
2023/04/07 09:45:46;;;;;;;5.18;3.03;;;;;;;20.19;41.48;96805.75;10332962;28;20042;-73
2023/04/07 09:51:07;;;;;;;6.03;3.47;;;;;;;20.15;40.54;96802.94;10332211;28;20042;-72
2023/04/07 09:56:28;;;;;;;5.90;3.85;;;;;;;20.11;39.48;96794.69;10319706;28;20049;-72
2023/04/07 10:01:47;;;;;;;8.45;5.03;;;;;;;20.12;36.45;96785.44;10331596;28;20042;-72
2023/04/07 10:07:07;;;;;;;5.15;4.00;;;;;;;20.11;37.25;96788.47;10332462;28;20092;-72
2023/04/07 10:12:26;;;;;;;20.60;8.60;;;;;;;20.08;36.58;96792.63;10346847;28;20487;-72
2023/04/07 10:17:47;;;;;;;36.90;12.70;;;;;;;20.11;37.45;96791.16;10318182;28;20049;-72
2023/04/07 10:23:20;;;;;;;55.67;15.63;;;;;;;20.13;37.83;96780.81;10331852;28;20545;-72
2023/04/07 10:28:40;;;;;;;95.90;24.10;;;;;;;20.15;38.75;96778.59;10323956;28;20058;-72
2023/04/07 10:34:01;;;;;;;56.00;15.75;;;;;;;20.16;39.32;96780.16;10331800;28;20046;-72
2023/04/07 10:39:21;;;;;;;51.88;16.55;;;;;;;20.15;39.20;96781.31;10318066;28;20046;-72
2023/04/07 10:44:41;;;;;;;48.33;14.50;;;;;;;20.15;39.29;96792.13;10332034;28;20491;-72
2023/04/07 10:50:21;;;;;;;21.52;10.10;;;;;;;19.78;30.05;96775.63;10331737;28;20046;-72
2023/04/07 10:55:44;;;;;;;31.13;12.20;;;;;;;19.87;35.46;96776.34;10331442;28;20046;-72
2023/04/07 11:01:08;;;;;;;36.85;13.02;;;;;;;19.99;37.00;96772.16;10317604;28;20050;-72
2023/04/07 11:06:28;;;;;;;20.08;10.25;;;;;;;19.86;31.12;96782.88;10331049;28;20049;-72
2023/04/07 11:11:47;;;;;;;20.30;9.50;;;;;;;19.64;31.14;96777.69;10335965;28;20046;-72
2023/04/07 11:17:13;;;;;;;15.88;7.53;;;;;;;19.63;29.11;96768.03;10338645;28;20442;-71
2023/04/07 11:22:34;;;;;;;11.75;7.10;;;;;;;19.46;27.27;96766.97;10325025;28;20042;-72
2023/04/07 11:27:53;;;;;;;12.50;6.63;;;;;;;19.36;27.60;96770.03;10332286;28;20065;-71
2023/04/07 11:33:33;;;;;;;9.52;7.55;;;;;;;18.50;23.19;96767.16;10338065;28;20486;-72
2023/04/07 11:38:53;;;;;;;10.32;7.70;;;;;;;17.97;24.27;96765.50;10338206;28;20051;-72
2023/04/07 11:44:13;;;;;;;9.95;5.72;;;;;;;18.62;28.63;96766.53;10337455;28;20042;-72
2023/04/07 11:49:32;;;;;;;7.45;4.63;;;;;;;19.02;30.78;96763.63;10352290;28;20046;-73
2023/04/07 11:54:52;;;;;;;9.02;5.07;;;;;;;19.26;31.67;96762.28;10351987;28;20057;-72
2023/04/07 12:00:13;;;;;;;6.90;4.28;;;;;;;19.41;32.54;96764.47;10343659;28;20038;-73
2023/04/07 12:05:44;;;;;;;9.82;4.47;;;;;;;19.48;33.47;96762.06;10363928;28;20389;-73
2023/04/07 12:11:04;;;;;;;8.90;3.60;;;;;;;19.53;34.10;96759.16;10378313;28;20061;-73
2023/04/07 12:16:24;;;;;;;5.05;3.90;;;;;;;19.58;34.81;96754.69;10363490;28;20050;-77
2023/04/07 12:21:44;;;;;;;7.20;3.72;;;;;;;19.60;35.41;96747.84;10375839;28;20387;-75
2023/04/07 12:27:03;;;;;;;5.65;3.55;;;;;;;19.64;35.76;96750.69;10359195;28;20053;-76
2023/04/07 12:32:24;;;;;;;5.47;2.97;;;;;;;19.66;36.23;96753.84;10363038;28;20049;-76
2023/04/07 12:37:45;;;;;;;5.15;3.25;;;;;;;19.68;36.75;96749.72;10390945;28;20049;-76
2023/04/07 12:43:05;;;;;;;4.70;3.10;;;;;;;19.73;36.98;96759.56;10376167;28;20080;-76
2023/04/07 12:48:26;;;;;;;6.10;3.05;;;;;;;19.76;37.25;96758.94;10375557;28;20037;-75
2023/04/07 12:53:46;;;;;;;5.03;3.10;;;;;;;19.78;37.67;96751.28;10361987;28;20042;-76
2023/04/07 12:59:06;;;;;;;6.78;3.20;;;;;;;19.80;37.89;96756.34;10375339;28;20080;-78
2023/04/07 13:04:29;;;;;;;5.57;2.80;;;;;;;19.83;38.38;96744.91;10361171;28;20046;-76
2023/04/07 13:09:48;;;;;;;5.93;3.10;;;;;;;19.86;38.67;96758.56;10361629;28;20407;-77
2023/04/07 13:15:07;;;;;;;5.05;2.70;;;;;;;19.87;39.05;96754.72;10374729;28;20053;-78
2023/04/07 13:20:29;;;;;;;5.68;2.53;;;;;;;19.89;39.30;96752.47;10374516;28;20046;-73
2023/04/07 13:25:48;;;;;;;7.88;2.92;;;;;;;19.91;39.47;96749.44;10374183;28;20112;-72
2023/04/07 13:31:10;;;;;;;5.00;3.00;;;;;;;19.95;39.65;96742.28;10360387;28;20046;-74
2023/04/07 13:36:30;;;;;;;6.45;3.00;;;;;;;19.95;39.31;96745.78;10387945;28;20078;-73
2023/04/07 13:41:50;;;;;;;9.43;3.08;;;;;;;19.97;39.70;96739.25;10359913;28;20049;-73
2023/04/07 13:47:09;;;;;;;4.50;2.80;;;;;;;19.98;39.66;96743.53;10373441;28;20046;-72
2023/04/07 13:52:31;;;;;;;5.15;3.10;;;;;;;19.99;39.73;96739.72;10373373;28;20056;-74
2023/04/07 13:57:51;;;;;;;6.03;3.30;;;;;;;19.98;38.47;96720.00;10359814;28;20042;-73
2023/04/07 14:03:10;;;;;;;2.83;2.13;;;;;;;19.98;39.87;96732.72;10387706;28;20054;-74
2023/04/07 14:08:30;;;;;;;5.43;3.10;;;;;;;19.97;39.39;96731.13;10372844;28;20410;-73
2023/04/07 14:13:50;;;;;;;5.85;2.75;;;;;;;19.97;39.28;96725.72;10372532;28;20490;-77
2023/04/07 14:19:10;;;;;;;2.65;2.20;;;;;;;19.97;38.97;96725.72;10361460;28;20054;-74
2023/04/07 14:24:29;;;;;;;5.28;3.10;;;;;;;19.94;40.01;96727.97;10374142;28;20046;-74
2023/04/07 14:29:48;;;;;;;3.65;2.75;;;;;;;19.95;40.36;96726.03;10361342;28;20081;-73
2023/04/07 14:35:08;;;;;;;3.22;2.15;;;;;;;19.93;37.95;96720.19;10372026;28;20068;-74
2023/04/07 14:40:28;;;;;;;6.60;3.25;;;;;;;19.91;39.46;96717.78;10371655;28;20042;-74
2023/04/07 14:45:47;;;;;;;10.18;4.18;;;;;;;19.93;39.63;96720.19;10390089;28;20046;-73
2023/04/07 14:51:11;;;;;;;9.95;3.45;;;;;;;19.94;42.44;96719.06;10364202;28;20042;-73
2023/04/07 14:56:31;;;;;;;4.25;2.55;;;;;;;19.94;43.71;96719.06;10362679;28;20038;-73
2023/04/07 15:01:50;;;;;;;8.40;4.03;;;;;;;19.92;43.26;96713.19;10375910;28;20478;-73
2023/04/07 15:07:10;;;;;;;5.20;3.53;;;;;;;19.92;42.92;96719.41;10379297;28;20050;-73
2023/04/07 15:12:30;;;;;;;14.25;4.22;;;;;;;19.91;42.68;96717.00;10379401;28;20050;-73
2023/04/07 15:17:49;;;;;;;6.80;4.10;;;;;;;19.90;42.33;96721.63;10379250;28;20042;-74
2023/04/07 15:23:09;;;;;;;9.75;4.20;;;;;;;19.90;41.95;96715.44;10393619;28;20525;-73
2023/04/07 15:28:29;;;;;;;8.38;4.25;;;;;;;19.88;42.16;96721.16;10357780;28;20045;-73
2023/04/07 15:33:48;;;;;;;9.13;4.05;;;;;;;19.88;42.12;96706.88;10364922;28;20046;-73
2023/04/07 15:39:07;;;;;;;10.13;3.95;;;;;;;19.86;42.02;96720.72;10350946;28;20052;-73
2023/04/07 15:44:28;;;;;;;8.02;3.67;;;;;;;19.86;41.91;96714.53;10364553;28;20133;-73
2023/04/07 15:49:48;;;;;;;8.95;5.32;;;;;;;19.81;38.27;96715.47;10350797;28;20050;-74
2023/04/07 15:55:07;;;;;;;10.75;4.47;;;;;;;19.81;41.59;96707.38;10377080;28;20042;-73
2023/04/07 16:00:28;;;;;;;7.88;3.95;;;;;;;19.82;42.04;96706.25;10350155;28;20038;-73
2023/04/07 16:05:49;;;;;;;8.30;3.90;;;;;;;19.82;42.31;96713.59;10377143;28;20487;-74
2023/04/07 16:11:09;;;;;;;7.22;3.60;;;;;;;19.83;42.57;96704.34;10363476;28;20391;-72
2023/04/07 16:16:31;;;;;;;11.93;4.30;;;;;;;19.82;42.65;96708.19;10376778;28;20042;-71
2023/04/07 16:21:51;;;;;;;8.40;3.88;;;;;;;19.82;42.78;96721.69;10363029;28;20092;-72
2023/04/07 16:27:11;;;;;;;8.80;3.30;;;;;;;19.80;42.89;96718.50;10372452;28;20511;-72
2023/04/07 16:32:31;;;;;;;8.43;3.65;;;;;;;19.79;43.05;96709.63;10376224;28;20056;-73
2023/04/07 16:37:53;;;;;;;5.75;3.60;;;;;;;19.79;42.93;96715.03;10362553;28;20046;-73
2023/04/07 16:43:13;;;;;;;8.10;3.72;;;;;;;19.78;43.14;96732.38;10390395;28;20041;-73
2023/04/07 16:48:32;;;;;;;8.60;3.80;;;;;;;19.77;43.20;96725.38;10375625;28;20041;-73
2023/04/07 16:53:51;;;;;;;6.57;3.67;;;;;;;19.77;43.11;96743.50;10375513;28;20084;-73
2023/04/07 16:59:11;;;;;;;6.60;3.67;;;;;;;19.75;42.93;96741.91;10375281;28;20053;-73
2023/04/07 17:04:30;;;;;;;6.95;3.25;;;;;;;19.76;43.25;96745.41;10389637;28;20041;-74
2023/04/07 17:09:50;;;;;;;4.85;2.78;;;;;;;19.74;43.37;96751.16;10347100;28;20045;-75
2023/04/07 17:15:10;;;;;;;4.75;3.10;;;;;;;19.76;43.29;96758.94;10360906;28;20053;-76
2023/04/07 17:20:29;;;;;;;6.65;3.03;;;;;;;19.75;43.09;96773.56;10333552;28;20042;-75
2023/04/07 17:25:49;;;;;;;6.32;3.10;;;;;;;19.73;43.35;96770.38;10363343;28;20067;-74
2023/04/07 17:31:12;;;;;;;5.13;2.97;;;;;;;19.70;43.34;96782.63;10389701;28;20050;-74
2023/04/07 17:36:32;;;;;;;5.82;3.53;;;;;;;19.69;43.70;96782.94;10401405;28;20042;-73
2023/04/07 17:41:52;;;;;;;4.18;2.95;;;;;;;19.67;43.70;96785.97;10372327;28;20501;-73
2023/04/07 17:47:11;;;;;;;5.47;3.15;;;;;;;19.66;43.93;96783.56;10372941;28;20037;-73
2023/04/07 17:52:31;;;;;;;6.18;3.03;;;;;;;19.67;44.14;96788.66;10383503;28;20049;-73
2023/04/07 17:57:51;;;;;;;5.28;2.90;;;;;;;19.67;44.15;96790.59;10359378;28;20411;-73
2023/04/07 18:03:11;;;;;;;6.88;3.22;;;;;;;19.66;43.84;96797.91;10365407;28;20038;-73
2023/04/07 18:08:31;;;;;;;5.60;2.97;;;;;;;19.65;44.31;96800.94;10380403;28;20049;-73
2023/04/07 18:13:51;;;;;;;6.25;3.22;;;;;;;19.63;43.71;96803.16;10394088;28;20042;-74
2023/04/07 18:19:11;;;;;;;4.05;2.30;;;;;;;19.62;44.03;96805.06;10361474;28;20092;-73
2023/04/07 18:24:31;;;;;;;6.03;3.03;;;;;;;19.62;44.03;96805.06;10371652;28;20046;-73
2023/04/07 18:29:51;;;;;;;3.17;2.05;;;;;;;19.61;43.07;96811.59;10360638;28;20574;-73
2023/04/07 18:35:10;;;;;;;7.63;3.08;;;;;;;19.61;43.81;96816.22;10372832;28;20486;-73
2023/04/07 18:40:32;;;;;;;4.53;3.17;;;;;;;19.61;44.10;96813.50;10367068;28;20042;-74
2023/04/07 18:45:51;;;;;;;6.07;3.08;;;;;;;19.60;44.08;96814.59;10371686;28;20099;-74
2023/04/07 18:51:11;;;;;;;6.88;3.38;;;;;;;19.59;44.28;96823.84;10383231;28;20046;-74
2023/04/07 18:56:31;;;;;;;6.68;3.17;;;;;;;19.61;44.52;96816.22;10378787;28;20038;-74
2023/04/07 19:01:52;;;;;;;7.38;3.30;;;;;;;19.62;44.63;96817.78;10382786;28;20050;-75
2023/04/07 19:07:11;;;;;;;8.18;3.70;;;;;;;19.62;44.68;96824.00;10386860;28;20069;-73
2023/04/07 19:12:31;;;;;;;7.03;3.05;;;;;;;19.64;44.33;96831.75;10386730;28;20042;-75
2023/04/07 19:17:50;;;;;;;8.27;3.10;;;;;;;19.65;44.64;96827.94;10374135;28;20045;-73
2023/04/07 19:23:10;;;;;;;6.60;3.45;;;;;;;19.67;44.79;96831.91;10374305;28;20050;-75
2023/04/07 19:28:30;;;;;;;7.20;2.80;;;;;;;19.69;44.91;96835.06;10379385;28;20061;-74
2023/04/07 19:33:49;;;;;;;7.82;3.30;;;;;;;19.71;44.91;96840.16;10365610;28;20080;-72
2023/04/07 19:39:09;;;;;;;8.55;3.67;;;;;;;19.74;44.95;96848.44;10394326;28;20045;-72
2023/04/07 19:44:29;;;;;;;7.82;3.80;;;;;;;19.76;44.82;96848.13;10379869;28;20172;-73
2023/04/07 19:49:48;;;;;;;8.05;3.63;;;;;;;19.79;45.21;96849.38;10392779;28;20042;-74
2023/04/07 19:55:08;;;;;;;9.25;3.30;;;;;;;19.79;45.02;96847.47;10367214;28;20050;-74
2023/04/07 20:00:28;;;;;;;9.20;3.60;;;;;;;19.81;44.79;96850.66;10323351;28;20046;-73
2023/04/07 20:05:48;;;;;;;9.65;3.67;;;;;;;19.84;44.84;96863.53;10351450;28;20043;-74
2023/04/07 20:11:11;;;;;;;8.20;3.92;;;;;;;19.86;44.98;96858.59;10336704;28;20491;-74
2023/04/07 20:16:31;;;;;;;12.10;4.25;;;;;;;19.88;44.93;96859.06;10323310;28;20455;-74
2023/04/07 20:21:51;;;;;;;11.23;4.05;;;;;;;19.90;45.13;96861.44;10336073;28;20065;-74
2023/04/07 20:27:11;;;;;;;9.75;4.50;;;;;;;19.91;45.20;96863.78;10318598;28;20054;-72
2023/04/07 20:32:30;;;;;;;10.07;3.78;;;;;;;19.92;45.18;96859.97;10335902;28;20411;-73
2023/04/07 20:37:50;;;;;;;9.05;4.18;;;;;;;19.92;45.13;96859.97;10335656;28;20100;-72
2023/04/07 20:43:09;;;;;;;11.05;4.85;;;;;;;19.93;45.21;96858.06;10334638;28;20485;-73
2023/04/07 20:48:28;;;;;;;11.75;4.30;;;;;;;19.94;45.32;96865.84;10308143;28;20058;-73
2023/04/07 20:53:48;;;;;;;8.80;4.38;;;;;;;19.97;45.33;96860.91;10335037;28;20502;-73
2023/04/07 20:59:07;;;;;;;11.05;4.22;;;;;;;19.98;45.53;96867.94;10334766;28;20053;-75
2023/04/07 21:04:27;;;;;;;11.02;4.00;;;;;;;19.96;45.37;96854.72;10334509;28;20038;-73
2023/04/07 21:09:46;;;;;;;10.23;3.80;;;;;;;19.98;45.61;96854.41;10334350;28;20046;-73
2023/04/07 21:15:06;;;;;;;8.98;4.10;;;;;;;19.98;45.59;96851.69;10320691;28;20050;-74
2023/04/07 21:20:25;;;;;;;9.48;4.10;;;;;;;20.00;45.65;96849.47;10334076;28;20049;-74
2023/04/07 21:25:46;;;;;;;8.27;3.97;;;;;;;19.99;45.75;96853.28;10333523;28;20057;-75
2023/04/07 21:31:06;;;;;;;10.13;4.15;;;;;;;20.01;45.90;96845.63;10348206;28;20510;-75
2023/04/07 21:36:26;;;;;;;10.32;3.83;;;;;;;20.01;45.85;96846.41;10319930;28;20538;-74
2023/04/07 21:41:46;;;;;;;8.38;3.72;;;;;;;20.02;45.73;96841.81;10319349;28;20042;-75
2023/04/07 21:47:05;;;;;;;11.55;3.47;;;;;;;20.02;45.60;96836.41;10334013;28;20050;-80
2023/04/07 21:52:25;;;;;;;10.70;3.55;;;;;;;20.02;45.47;96839.91;10326441;28;20058;-75
2023/04/07 21:57:45;;;;;;;8.93;3.70;;;;;;;20.04;45.52;96839.59;10332850;28;20053;-73
2023/04/07 22:03:05;;;;;;;7.20;3.30;;;;;;;20.03;45.20;96835.28;10347420;28;20073;-73
2023/04/07 22:08:26;;;;;;;6.07;3.30;;;;;;;20.01;45.29;96834.81;10332702;28;20042;-73
2023/04/07 22:13:45;;;;;;;7.00;3.38;;;;;;;20.00;45.22;96838.66;10332568;28;20050;-73
2023/04/07 22:19:05;;;;;;;5.70;3.00;;;;;;;19.98;45.12;96836.25;10318618;28;20047;-73
2023/04/07 22:24:24;;;;;;;6.32;3.40;;;;;;;19.98;45.14;96840.88;10318184;28;20066;-73
2023/04/07 22:29:44;;;;;;;6.20;3.38;;;;;;;19.97;44.97;96840.06;10321148;28;20054;-73
2023/04/07 22:35:04;;;;;;;6.90;3.38;;;;;;;19.95;45.02;96837.72;10319119;28;20066;-73
2023/04/07 22:40:24;;;;;;;6.65;2.80;;;;;;;19.97;45.05;96833.88;10332005;28;20542;-73
2023/04/07 22:45:44;;;;;;;7.05;2.85;;;;;;;19.95;44.90;96842.31;10317960;28;20046;-73
2023/04/07 22:51:04;;;;;;;5.40;2.78;;;;;;;19.95;44.84;96837.72;10317853;28;20561;-73
2023/04/07 22:56:24;;;;;;;5.80;3.13;;;;;;;19.93;44.91;96845.38;10331574;28;20046;-73
2023/04/07 23:01:43;;;;;;;7.45;3.65;;;;;;;19.93;44.88;96842.66;10345796;28;20039;-73
2023/04/07 23:07:03;;;;;;;4.90;2.80;;;;;;;19.91;44.78;96846.78;10321445;28;20042;-73
2023/04/07 23:12:22;;;;;;;5.95;3.20;;;;;;;19.91;44.61;96844.88;10339053;28;20046;-73
2023/04/07 23:17:41;;;;;;;5.15;2.85;;;;;;;19.89;44.76;96847.09;10353508;28;20538;-73
2023/04/07 23:23:01;;;;;;;6.40;2.83;;;;;;;19.88;44.65;96842.84;10353219;28;20038;-73
2023/04/07 23:28:20;;;;;;;6.05;2.55;;;;;;;19.86;44.65;96839.66;10346018;28;20054;-73
2023/04/07 23:33:39;;;;;;;4.75;2.95;;;;;;;19.86;44.68;96842.38;10338048;28;20093;-73
2023/04/07 23:39:00;;;;;;;5.13;2.85;;;;;;;19.86;44.47;96842.38;10352556;28;20427;-73
2023/04/07 23:44:20;;;;;;;4.32;2.65;;;;;;;19.85;44.35;96840.75;10324080;28;20046;-73
2023/04/07 23:49:39;;;;;;;4.90;2.95;;;;;;;19.85;44.22;96839.97;10337665;28;20069;-73
2023/04/07 23:54:59;;;;;;;5.38;2.80;;;;;;;19.84;44.27;96836.50;10337225;28;20053;-73
